createdAt,value
2023-03-18T00:00:49.008Z,8.70
2023-03-18T00:03:16.024Z,10.03
2023-03-18T00:05:42.670Z,8.83
2023-03-18T00:08:09.696Z,9.53
2023-03-18T00:10:36.320Z,9.20
2023-03-18T00:13:05.981Z,8.47
2023-03-18T00:15:33.039Z,8.03
2023-03-18T00:17:59.882Z,6.63
2023-03-18T00:20:38.795Z,8.97
2023-03-18T00:23:11.484Z,7.97
2023-03-18T00:25:38.912Z,8.90
2023-03-18T00:28:07.177Z,8.67
2023-03-18T00:30:37.184Z,8.57
2023-03-18T00:33:05.508Z,8.57
2023-03-18T00:35:32.414Z,8.30
2023-03-18T00:38:00.466Z,9.80
2023-03-18T00:40:43.144Z,6.70
2023-03-18T00:43:11.250Z,9.63
2023-03-18T00:45:39.535Z,7.27
2023-03-18T00:48:07.644Z,7.47
2023-03-18T00:50:36.103Z,7.63
2023-03-18T00:53:03.024Z,8.20
2023-03-18T00:55:29.672Z,8.57
2023-03-18T00:57:57.358Z,8.27
2023-03-18T01:00:26.171Z,8.07
2023-03-18T01:02:56.374Z,9.47
2023-03-18T01:05:23.060Z,7.40
2023-03-18T01:07:49.815Z,9.83
2023-03-18T01:10:17.156Z,9.93
2023-03-18T01:12:46.703Z,7.77
2023-03-18T01:15:18.893Z,11.23
2023-03-18T01:17:46.644Z,9.30
2023-03-18T01:20:17.091Z,8.43
2023-03-18T01:22:44.825Z,8.40
2023-03-18T01:25:13.143Z,8.47
2023-03-18T01:27:40.655Z,8.90
2023-03-18T01:30:09.187Z,8.37
2023-03-18T01:32:36.583Z,7.23
2023-03-18T01:35:03.724Z,7.37
2023-03-18T01:37:31.520Z,7.03
2023-03-18T01:39:58.424Z,9.90
2023-03-18T01:42:25.085Z,7.07
2023-03-18T01:45:19.855Z,11.33
2023-03-18T01:47:46.681Z,8.00
2023-03-18T01:50:23.113Z,8.43
2023-03-18T01:53:04.436Z,9.07
2023-03-18T01:55:32.272Z,7.13
2023-03-18T01:58:01.375Z,8.47
2023-03-18T02:00:28.578Z,8.47
2023-03-18T02:02:55.191Z,8.13
2023-03-18T02:07:51.643Z,10.43
2023-03-18T02:10:21.542Z,7.07
2023-03-18T02:12:54.647Z,11.33
2023-03-18T02:15:23.283Z,8.37
2023-03-18T02:18:09.212Z,7.30
2023-03-18T02:20:48.829Z,7.53
2023-03-18T02:23:43.287Z,8.07
2023-03-18T02:26:34.963Z,6.13
2023-03-18T02:29:04.880Z,9.90
2023-03-18T02:31:34.862Z,9.30
2023-03-18T02:34:01.911Z,8.87
2023-03-18T02:36:32.010Z,8.60
2023-03-18T02:39:00.371Z,9.40
2023-03-18T02:41:31.788Z,8.70
2023-03-18T02:43:58.792Z,8.43
2023-03-18T02:46:36.453Z,9.13
2023-03-18T02:49:05.154Z,6.63
2023-03-18T02:51:31.762Z,6.87
2023-03-18T02:54:08.521Z,8.33
2023-03-18T02:56:35.192Z,7.93
2023-03-18T02:59:01.936Z,6.53
2023-03-18T03:01:29.011Z,10.47
2023-03-18T03:03:56.399Z,7.40
2023-03-18T03:06:23.355Z,9.87
2023-03-18T03:08:50.240Z,7.77
2023-03-18T03:11:17.125Z,6.30
2023-03-18T03:13:45.906Z,8.70
2023-03-18T03:16:14.174Z,7.17
2023-03-18T03:18:40.838Z,6.80
2023-03-18T03:21:08.746Z,8.90
2023-03-18T03:23:35.914Z,6.67
2023-03-18T03:26:03.009Z,6.87
2023-03-18T03:28:29.774Z,8.17
2023-03-18T03:30:57.029Z,7.43
2023-03-18T03:33:23.837Z,7.43
2023-03-18T03:35:50.583Z,13.20
2023-03-18T03:38:17.539Z,8.97
2023-03-18T03:40:46.788Z,8.23
2023-03-18T03:43:14.577Z,8.87
2023-03-18T03:45:42.117Z,5.87
2023-03-18T03:48:09.074Z,7.63
2023-03-18T03:50:37.112Z,6.07
2023-03-18T03:53:05.552Z,6.23
2023-03-18T03:55:33.733Z,9.47
2023-03-18T03:58:01.173Z,8.23
2023-03-18T04:00:28.467Z,8.63
2023-03-18T04:02:55.152Z,8.17
2023-03-18T04:05:24.523Z,8.23
2023-03-18T04:07:52.553Z,8.30
2023-03-18T04:10:20.670Z,6.93
2023-03-18T04:12:47.540Z,6.60
2023-03-18T04:15:16.434Z,6.33
2023-03-18T04:17:43.099Z,6.40
2023-03-18T04:20:10.808Z,5.90
2023-03-18T04:22:37.780Z,10.40
2023-03-18T04:25:05.228Z,7.73
2023-03-18T04:27:33.697Z,7.20
2023-03-18T04:30:00.785Z,5.97
2023-03-18T04:32:27.852Z,7.57
2023-03-18T04:34:54.876Z,8.40
2023-03-18T04:37:21.737Z,6.30
2023-03-18T04:39:48.427Z,7.97
2023-03-18T04:42:15.060Z,7.63
2023-03-18T04:44:41.818Z,7.47
2023-03-18T04:47:08.574Z,6.73
2023-03-18T04:49:35.612Z,7.17
2023-03-18T04:52:02.293Z,8.50
2023-03-18T04:54:28.976Z,7.03
2023-03-18T04:56:55.727Z,7.47
2023-03-18T04:59:22.365Z,8.67
2023-03-18T05:01:49.041Z,8.67
2023-03-18T05:04:15.764Z,6.87
2023-03-18T05:06:42.636Z,6.80
2023-03-18T05:09:09.698Z,7.97
2023-03-18T05:11:36.485Z,6.50
2023-03-18T05:14:03.221Z,8.20
2023-03-18T05:16:30.303Z,8.03
2023-03-18T05:18:57.087Z,7.37
2023-03-18T05:21:23.979Z,7.80
2023-03-18T05:23:51.005Z,7.27
2023-03-18T05:26:17.860Z,7.37
2023-03-18T05:28:44.953Z,7.47
2023-03-18T05:31:11.609Z,7.83
2023-03-18T05:33:38.275Z,8.30
2023-03-18T05:36:05.244Z,8.63
2023-03-18T05:38:32.200Z,5.83
2023-03-18T05:40:58.871Z,8.37
2023-03-18T05:43:26.303Z,6.70
2023-03-18T05:45:52.991Z,8.97
2023-03-18T05:48:19.931Z,6.37
2023-03-18T05:50:46.930Z,8.27
2023-03-18T05:53:16.182Z,9.53
2023-03-18T05:55:43.232Z,9.40
2023-03-18T05:58:09.845Z,6.07
2023-03-18T06:00:37.661Z,7.07
2023-03-18T06:03:04.717Z,8.83
2023-03-18T06:05:31.912Z,14.03
2023-03-18T06:07:59.404Z,12.90
2023-03-18T06:10:26.487Z,11.93
2023-03-18T06:12:55.349Z,8.17
2023-03-18T06:15:22.796Z,12.27
2023-03-18T06:17:49.482Z,9.83
2023-03-18T06:20:18.693Z,9.87
2023-03-18T06:22:49.526Z,8.20
2023-03-18T06:25:18.422Z,5.77
2023-03-18T06:27:45.084Z,7.37
2023-03-18T06:30:13.312Z,6.50
2023-03-18T06:32:40.536Z,8.97
2023-03-18T06:35:08.158Z,10.03
2023-03-18T06:37:34.819Z,7.63
2023-03-18T06:40:01.755Z,7.73
2023-03-18T06:42:28.360Z,8.80
2023-03-18T06:44:55.045Z,7.33
2023-03-18T06:47:22.765Z,7.70
2023-03-18T06:49:50.829Z,7.60
2023-03-18T06:52:19.048Z,7.23
2023-03-18T06:54:46.214Z,7.50
2023-03-18T06:57:13.516Z,8.47
2023-03-18T06:59:40.771Z,6.97
2023-03-18T07:02:08.662Z,6.93
2023-03-18T07:04:35.590Z,8.63
2023-03-18T07:07:02.297Z,6.70
2023-03-18T07:09:28.986Z,7.87
2023-03-18T07:11:55.626Z,8.37
2023-03-18T07:14:22.813Z,7.07
2023-03-18T07:16:50.554Z,7.33
2023-03-18T07:19:18.807Z,9.23
2023-03-18T07:21:46.347Z,6.67
2023-03-18T07:24:13.280Z,8.87
2023-03-18T07:26:39.976Z,8.60
2023-03-18T07:29:06.603Z,7.83
2023-03-18T07:31:33.812Z,6.57
2023-03-18T07:34:00.529Z,7.67
2023-03-18T07:36:28.125Z,9.87
2023-03-18T07:38:56.828Z,7.43
2023-03-18T07:41:23.535Z,9.47
2023-03-18T07:43:50.168Z,7.53
2023-03-18T07:46:17.077Z,7.40
2023-03-18T07:48:43.667Z,9.90
2023-03-18T07:51:10.283Z,8.93
2023-03-18T07:53:37.995Z,8.73
2023-03-18T07:56:04.774Z,10.33
2023-03-18T07:58:31.355Z,7.77
2023-03-18T08:00:59.851Z,7.97
2023-03-18T08:03:26.610Z,8.27
2023-03-18T08:05:53.220Z,8.90
2023-03-18T08:08:19.892Z,7.43
2023-03-18T08:10:46.794Z,6.87
2023-03-18T08:13:13.435Z,7.53
2023-03-18T08:15:41.167Z,7.80
2023-03-18T08:18:09.406Z,6.73
2023-03-18T08:20:36.180Z,7.63
2023-03-18T08:23:04.392Z,6.90
2023-03-18T08:25:31.533Z,6.43
2023-03-18T08:27:58.405Z,7.93
2023-03-18T08:30:28.621Z,7.78
2023-03-18T08:32:56.368Z,8.32
2023-03-18T08:35:23.534Z,7.97
2023-03-18T08:37:51.599Z,6.55
2023-03-18T08:40:19.580Z,10.27
2023-03-18T08:42:46.918Z,6.03
2023-03-18T08:45:13.515Z,8.02
2023-03-18T08:47:41.437Z,7.80
2023-03-18T08:50:09.074Z,6.85
2023-03-18T08:52:37.977Z,7.25
2023-03-18T08:55:06.030Z,7.03
2023-03-18T08:57:33.087Z,7.70
2023-03-18T08:59:59.960Z,8.60
2023-03-18T09:02:27.583Z,6.72
2023-03-18T09:04:55.088Z,8.02
2023-03-18T09:07:21.786Z,7.57
2023-03-18T09:09:48.442Z,14.20
2023-03-18T09:12:15.255Z,11.23
2023-03-18T09:14:43.578Z,14.55
2023-03-18T09:17:10.428Z,18.63
2023-03-18T09:19:37.436Z,8.60
2023-03-18T09:22:04.605Z,8.60
2023-03-18T09:24:31.700Z,8.55
2023-03-18T09:26:59.988Z,8.95
2023-03-18T09:29:29.933Z,8.98
2023-03-18T09:31:56.625Z,9.55
2023-03-18T09:34:23.652Z,6.55
2023-03-18T09:36:51.671Z,9.13
2023-03-18T09:39:19.737Z,7.07
2023-03-18T09:42:45.076Z,6.45
2023-03-18T09:45:22.987Z,9.20
2023-03-18T09:48:07.484Z,7.85
2023-03-18T09:53:14.154Z,9.00
2023-03-18T09:55:47.047Z,8.38
2023-03-18T09:58:46.463Z,8.50
2023-03-18T10:01:13.787Z,6.18
2023-03-18T10:03:48.164Z,5.88
2023-03-18T10:06:20.658Z,9.73
2023-03-18T10:08:56.500Z,6.25
2023-03-18T10:11:31.121Z,6.93
2023-03-18T10:14:27.807Z,6.95
2023-03-18T10:16:58.394Z,9.50
2023-03-18T10:19:25.335Z,9.20
2023-03-18T10:22:23.441Z,9.32
2023-03-18T10:24:53.045Z,8.00
2023-03-18T10:27:59.183Z,16.83
2023-03-18T10:30:55.015Z,9.10
2023-03-18T10:33:46.494Z,63.25
2023-03-18T10:36:19.845Z,10.18
2023-03-18T10:38:51.800Z,7.40
2023-03-18T10:41:36.023Z,7.07
2023-03-18T10:44:06.243Z,7.82
2023-03-18T10:46:34.559Z,9.55
2023-03-18T10:49:16.329Z,9.32
2023-03-18T10:51:55.666Z,8.63
2023-03-18T10:54:44.154Z,7.88
2023-03-18T10:57:32.806Z,7.30
2023-03-18T10:59:59.793Z,7.80
2023-03-18T11:02:33.320Z,8.32
2023-03-18T11:05:06.806Z,7.55
2023-03-18T11:07:33.622Z,7.95
2023-03-18T11:10:28.895Z,8.40
2023-03-18T11:13:00.242Z,7.70
2023-03-18T11:15:27.024Z,8.93
2023-03-18T11:17:58.673Z,6.30
2023-03-18T11:20:47.684Z,6.95
2023-03-18T11:23:48.724Z,9.18
2023-03-18T11:26:24.488Z,7.70
2023-03-18T11:28:56.320Z,7.25
2023-03-18T11:31:23.130Z,8.82
2023-03-18T11:33:49.914Z,10.02
2023-03-18T11:36:20.606Z,10.82
2023-03-18T11:39:03.939Z,11.02
2023-03-18T11:41:30.814Z,9.23
2023-03-18T11:44:06.565Z,7.07
2023-03-18T11:46:47.028Z,10.38
2023-03-18T11:49:16.550Z,9.35
2023-03-18T11:52:02.449Z,9.18
2023-03-18T11:54:28.922Z,9.27
2023-03-18T11:57:14.212Z,11.55
2023-03-18T12:00:02.445Z,10.18
2023-03-18T12:02:47.850Z,11.73
2023-03-18T12:05:24.054Z,10.80
2023-03-18T12:08:00.124Z,9.43
2023-03-18T12:10:35.976Z,8.43
2023-03-18T12:13:21.985Z,8.57
2023-03-18T12:16:04.035Z,8.50
2023-03-18T12:18:58.762Z,9.68
2023-03-18T12:21:43.869Z,7.70
2023-03-18T12:24:30.355Z,8.23
2023-03-18T12:27:29.868Z,7.10
2023-03-18T12:30:09.905Z,7.20
2023-03-18T12:32:42.106Z,6.60
2023-03-18T12:35:19.563Z,7.82
2023-03-18T12:38:11.682Z,6.15
2023-03-18T12:40:49.725Z,7.65
2023-03-18T12:43:35.113Z,5.32
2023-03-18T12:46:06.204Z,8.60
2023-03-18T12:48:44.360Z,7.55
2023-03-18T12:51:18.267Z,7.00
2023-03-18T12:53:49.123Z,7.75
2023-03-18T12:56:23.358Z,6.57
2023-03-18T12:59:03.888Z,7.38
2023-03-18T13:01:34.935Z,6.80
2023-03-18T13:04:13.593Z,6.70
2023-03-18T13:06:46.380Z,6.88
2023-03-18T13:09:22.130Z,26.55
2023-03-18T13:12:04.701Z,13.90
2023-03-18T13:14:48.380Z,6.70
2023-03-18T13:17:21.846Z,8.70
2023-03-18T13:19:49.054Z,11.02
2023-03-18T13:22:35.976Z,5.63
2023-03-18T13:25:24.076Z,4.82
2023-03-18T13:28:12.242Z,6.78
2023-03-18T13:31:06.306Z,9.70
2023-03-18T13:34:05.316Z,8.43
2023-03-18T13:37:04.701Z,5.93
2023-03-18T13:39:55.225Z,5.10
2023-03-18T13:42:36.225Z,5.55
2023-03-18T13:45:29.366Z,6.93
2023-03-18T13:48:02.181Z,7.60
2023-03-18T13:50:39.980Z,10.35
2023-03-18T13:53:21.004Z,7.35
2023-03-18T13:55:55.203Z,6.53
2023-03-18T13:58:52.721Z,7.47
2023-03-18T14:01:33.303Z,6.18
2023-03-18T14:04:02.349Z,5.50
2023-03-18T14:06:35.228Z,5.50
2023-03-18T14:09:23.060Z,6.15
2023-03-18T14:11:52.880Z,7.43
2023-03-18T14:14:48.579Z,5.43
2023-03-18T14:17:17.779Z,7.63
2023-03-18T14:19:45.547Z,5.93
2023-03-18T14:22:23.019Z,10.15
2023-03-18T14:25:11.077Z,7.63
2023-03-18T14:27:51.300Z,7.13
2023-03-18T14:30:30.230Z,7.60
2023-03-18T14:32:59.773Z,4.75
2023-03-18T14:35:47.753Z,4.25
2023-03-18T14:38:24.944Z,7.10
2023-03-18T14:40:54.342Z,8.40
2023-03-18T14:43:29.366Z,7.05
2023-03-18T14:46:02.882Z,6.38
2023-03-18T14:48:31.897Z,5.68
2023-03-18T14:51:13.384Z,7.13
2023-03-18T14:53:47.540Z,7.85
2023-03-18T14:56:23.722Z,9.07
2023-03-18T14:58:53.906Z,7.45
2023-03-18T15:01:41.160Z,8.85
2023-03-18T15:04:14.380Z,6.13
2023-03-18T15:06:41.930Z,6.28
2023-03-18T15:09:10.536Z,7.28
2023-03-18T15:11:41.392Z,9.98
2023-03-18T15:14:30.083Z,8.13
2023-03-18T15:16:59.849Z,7.97
2023-03-18T15:19:28.466Z,6.22
2023-03-18T15:21:59.144Z,5.10
2023-03-18T15:24:26.764Z,9.50
2023-03-18T15:27:14.670Z,7.03
2023-03-18T15:29:58.309Z,4.22
2023-03-18T15:32:34.151Z,7.68
2023-03-18T15:35:15.421Z,7.28
2023-03-18T15:37:47.093Z,7.15
2023-03-18T15:40:45.958Z,7.47
2023-03-18T15:43:19.055Z,5.82
2023-03-18T15:45:51.811Z,6.53
2023-03-18T15:48:32.026Z,5.30
2023-03-18T15:51:00.905Z,6.57
2023-03-18T15:53:30.338Z,9.82
2023-03-18T15:55:58.531Z,8.57
2023-03-18T15:58:35.717Z,8.43
2023-03-18T16:01:02.645Z,5.47
2023-03-18T16:03:32.361Z,4.18
2023-03-18T16:08:59.089Z,4.70
2023-03-18T16:11:26.130Z,4.43
2023-03-18T16:13:52.854Z,4.22
2023-03-18T16:16:28.304Z,5.18
2023-03-18T16:18:57.924Z,3.33
2023-03-18T16:21:24.589Z,5.80
2023-03-18T16:23:51.456Z,3.15
2023-03-18T16:26:18.474Z,11.18
2023-03-18T16:28:47.180Z,37.17
2023-03-18T16:31:15.319Z,47.35
2023-03-18T16:33:42.694Z,54.13
2023-03-18T16:36:23.005Z,64.90
2023-03-18T16:38:50.549Z,67.63
2023-03-18T16:41:18.061Z,70.13
2023-03-18T16:43:45.876Z,65.90
2023-03-18T16:46:13.921Z,49.53
2023-03-18T16:48:40.919Z,51.70
2023-03-18T16:51:07.651Z,35.47
2023-03-18T16:53:34.402Z,43.88
2023-03-18T16:56:16.039Z,38.78
2023-03-18T16:58:42.937Z,21.85
2023-03-18T17:01:16.447Z,17.33
2023-03-18T17:03:43.255Z,13.40
2023-03-18T17:06:10.099Z,11.35
2023-03-18T17:08:36.841Z,8.68
2023-03-18T17:11:04.128Z,7.53
2023-03-18T17:13:33.714Z,8.70
2023-03-18T17:16:01.727Z,8.80
2023-03-18T17:18:28.507Z,5.03
2023-03-18T17:20:55.338Z,6.78
2023-03-18T17:23:25.372Z,4.28
2023-03-18T17:25:59.313Z,7.22
2023-03-18T17:28:30.524Z,7.22
2023-03-18T17:30:57.244Z,3.85
2023-03-18T17:33:24.270Z,6.10
2023-03-18T17:35:52.218Z,12.85
2023-03-18T17:38:19.379Z,18.90
2023-03-18T17:40:48.064Z,18.98
2023-03-18T17:43:26.492Z,15.80
2023-03-18T17:45:53.929Z,22.02
2023-03-18T17:48:28.833Z,47.05
2023-03-18T17:50:57.903Z,70.85
2023-03-18T17:53:25.873Z,74.55
2023-03-18T17:55:54.652Z,64.45
2023-03-18T17:58:23.503Z,51.85
2023-03-18T18:00:51.728Z,50.05
2023-03-18T18:03:27.120Z,49.70
2023-03-18T18:05:55.132Z,49.85
2023-03-18T18:08:23.222Z,42.70
2023-03-18T18:10:49.925Z,39.58
2023-03-18T18:13:19.471Z,32.70
2023-03-18T18:15:46.719Z,27.83
2023-03-18T18:18:24.902Z,24.30
2023-03-18T18:20:54.772Z,21.60
2023-03-18T18:23:24.972Z,18.02
2023-03-18T18:25:52.374Z,16.48
2023-03-18T18:28:21.763Z,16.23
2023-03-18T18:30:49.658Z,14.75
2023-03-18T18:33:16.848Z,11.02
2023-03-18T18:35:44.073Z,12.05
2023-03-18T18:38:12.424Z,13.68
2023-03-18T18:40:39.694Z,13.13
2023-03-18T18:43:06.468Z,15.75
2023-03-18T18:45:34.156Z,18.30
2023-03-18T18:48:01.954Z,17.92
2023-03-18T18:50:32.468Z,19.02
2023-03-18T18:53:00.472Z,20.20
2023-03-18T18:55:27.161Z,17.98
2023-03-18T18:57:53.938Z,15.40
2023-03-18T19:00:23.106Z,12.52
2023-03-18T19:02:51.661Z,13.15
2023-03-18T19:05:18.654Z,14.50
2023-03-18T19:07:46.451Z,11.18
2023-03-18T19:10:14.966Z,13.52
2023-03-18T19:12:42.671Z,9.47
2023-03-18T19:15:09.907Z,11.18
2023-03-18T19:17:37.223Z,10.30
2023-03-18T19:20:05.502Z,11.65
2023-03-18T19:22:32.158Z,11.20
2023-03-18T19:24:58.774Z,9.93
2023-03-18T19:27:28.778Z,7.43
2023-03-18T19:29:58.220Z,10.80
2023-03-18T19:32:25.600Z,9.33
2023-03-18T19:34:53.216Z,8.33
2023-03-18T19:37:28.437Z,7.67
2023-03-18T19:39:56.067Z,5.57
2023-03-18T19:42:23.002Z,6.23
2023-03-18T19:44:49.761Z,6.17
2023-03-18T19:47:23.592Z,7.53
2023-03-18T19:49:50.266Z,6.90
2023-03-18T19:52:21.032Z,8.60
2023-03-18T19:54:48.680Z,5.67
2023-03-18T19:57:21.329Z,8.57
2023-03-18T19:59:48.904Z,5.97
2023-03-18T20:02:23.532Z,7.70
2023-03-18T20:04:51.636Z,7.17
2023-03-18T20:07:23.497Z,4.90
2023-03-18T20:09:50.571Z,5.07
2023-03-18T20:12:24.194Z,5.43
2023-03-18T20:14:51.830Z,6.18
2023-03-18T20:17:27.569Z,7.93
2023-03-18T20:19:54.179Z,6.33
2023-03-18T20:22:23.241Z,5.87
2023-03-18T20:24:50.056Z,6.47
2023-03-18T20:27:17.321Z,6.10
2023-03-18T20:29:46.781Z,6.87
2023-03-18T20:32:13.500Z,5.30
2023-03-18T20:34:41.584Z,6.30
2023-03-18T20:37:20.793Z,6.43
2023-03-18T20:39:48.910Z,6.17
2023-03-18T20:42:16.928Z,7.20
2023-03-18T20:44:45.245Z,4.57
2023-03-18T20:47:13.387Z,7.60
2023-03-18T20:49:44.537Z,5.03
2023-03-18T20:52:28.946Z,6.83
2023-03-18T20:54:56.815Z,7.60
2023-03-18T20:57:24.257Z,8.63
2023-03-18T20:59:51.657Z,5.67
2023-03-18T21:02:31.922Z,6.20
2023-03-18T21:05:00.026Z,5.50
2023-03-18T21:07:29.280Z,5.87
2023-03-18T21:09:56.218Z,5.83
2023-03-18T21:12:23.072Z,7.07
2023-03-18T21:14:50.610Z,5.27
2023-03-18T21:17:25.083Z,5.30
2023-03-18T21:19:53.688Z,5.53
2023-03-18T21:22:22.321Z,6.77
2023-03-18T21:24:49.833Z,8.70
2023-03-18T21:27:21.676Z,5.83
2023-03-18T21:29:51.148Z,7.57
2023-03-18T21:32:25.842Z,8.00
2023-03-18T21:34:52.871Z,7.17
2023-03-18T21:37:21.365Z,6.43
2023-03-18T21:39:48.992Z,8.70
2023-03-18T21:42:22.336Z,18.50
2023-03-18T21:44:49.034Z,19.15
2023-03-18T21:47:17.955Z,25.27
2023-03-18T21:49:44.877Z,18.07
2023-03-18T21:52:35.099Z,15.97
2023-03-18T21:55:03.096Z,12.40
2023-03-18T21:57:30.417Z,8.57
2023-03-18T21:59:57.106Z,7.70
2023-03-18T22:02:34.933Z,7.60
2023-03-18T22:05:03.984Z,7.17
2023-03-18T22:07:31.546Z,8.57
2023-03-18T22:09:58.672Z,7.97
2023-03-18T22:12:32.036Z,7.60
2023-03-18T22:14:59.394Z,8.38
2023-03-18T22:17:33.725Z,9.53
2023-03-18T22:20:02.097Z,13.43
2023-03-18T22:22:36.735Z,10.07
2023-03-18T22:25:03.988Z,8.20
2023-03-18T22:27:31.300Z,7.93
2023-03-18T22:30:00.210Z,8.37
2023-03-18T22:32:39.520Z,7.43
2023-03-18T22:35:12.940Z,8.33
2023-03-18T22:37:42.812Z,11.88
2023-03-18T22:40:15.925Z,9.27
2023-03-18T22:42:42.560Z,47.93
2023-03-18T22:45:28.581Z,74.60
2023-03-18T22:48:00.267Z,78.28
2023-03-18T22:50:28.414Z,67.40
2023-03-18T22:53:00.364Z,54.73
2023-03-18T22:55:29.326Z,45.10
2023-03-18T22:57:56.250Z,33.57
2023-03-18T23:00:40.828Z,25.50
2023-03-18T23:05:41.400Z,17.80
2023-03-18T23:08:08.001Z,10.17
2023-03-18T23:10:41.012Z,9.60
2023-03-18T23:13:15.453Z,9.85
2023-03-18T23:15:43.583Z,7.55
2023-03-18T23:18:18.069Z,8.20
2023-03-18T23:20:46.845Z,8.03
2023-03-18T23:23:14.526Z,7.87
2023-03-18T23:25:42.317Z,7.13
2023-03-18T23:28:09.276Z,9.20
2023-03-18T23:30:37.768Z,9.00
2023-03-18T23:33:05.101Z,10.03
2023-03-18T23:35:32.703Z,8.67
2023-03-18T23:37:59.583Z,10.17
2023-03-18T23:40:26.380Z,10.57
2023-03-18T23:42:53.390Z,9.33
2023-03-18T23:45:21.983Z,8.30
2023-03-18T23:47:48.632Z,12.43
2023-03-18T23:50:15.682Z,9.57
2023-03-18T23:52:43.001Z,8.90
2023-03-18T23:55:32.734Z,9.87
2023-03-18T23:58:00.770Z,7.43
